Airfield :
LOGIN :

Register | Disclaimer

   EN    FR    IT 

 










Legend :    VFR   Marginal VFR   IFR   Intensive IFR   Very Intensive IFR
Visi :
Ceiling :
>= 8 km
>= 3000ft
5 to 8 km
1000 to 3000 ft
1500m to 5 km
500 to 1000 ft
800 to 1500m
200 to 500 ft
< 800m
< 200 ft
Symbols :   Thunderstorms  Fog  Heavy snow  Heavy precipitations  Wind > 20 kt
SIGMETs :     Misc.  Thunderstorms  Icing  Turbulence  Mountain Waves  Volcanic Ashes







- Airport Elevation : 160 ft
- IATA code : LRT
- Download approach charts


LFRH - Lorient Lann Bihoue

CURRENT METAR :
  • 200900Z AUTO 22007KT 9999 BKN018 10/10 Q1023 NOSIG

EXPIRED METARs :
  • 200830Z AUTO 22004KT 9999 BKN019 06/06 Q1023 NOSIG
  • 200800Z AUTO VRB02KT 9999 BKN019 05/05 Q1023 NOSIG
  • 200730Z AUTO VRB02KT 6000 BKN020 04/04 Q1023 NOSIG
  • 200700Z AUTO 06002KT 6000 BKN020 05/04 Q1023 TEMPO 0700 FG
  • 200630Z AUTO 04003KT 6000 OVC019 05/04 Q1023 TEMPO 0700 FG

TAF TAF LFRH
Valid from the 20 at 06:00 until the 21 at 06:00 UTC


200500Z 2006/2106 09003KT 2500 BR BKN015
PROB30
TEMPO 2006/2008 0700 FG SCT001 SCT015
BECMG 2008/2010 5000 BR FEW015
BECMG 2010/2012 21010KT 9999 NSW
BECMG 2021/2023 BKN007
No reported NOTAMs for that airfield.



MET'MAP, your aeronautical weather chart ! - Copyright ORBIFLY December 2007 - Disclaimer

ORBIFLY MET'MAP TEAM :

Programming & Development : Alexandra Zaïnal
Concept & Development : Baudouin d'Aumeries
Co-Development & Prog : Marc-Olivier Méhu
Technical & hardware support : Manuel Goepfert

Contact : metmap@orbifly.com




SOURCES & CREDITS :

   NOAA